createdAt,value
2018-01-24T00:04:43.122Z,67.40
2018-01-24T00:10:46.971Z,67.80
2018-01-24T00:16:50.925Z,66.70
2018-01-24T00:22:55.197Z,66.40
2018-01-24T00:28:59.198Z,65.70
2018-01-24T00:35:04.334Z,65.80
2018-01-24T00:41:08.181Z,65.80
2018-01-24T00:47:12.140Z,66.00
2018-01-24T00:53:16.056Z,65.30
2018-01-24T00:59:19.880Z,64.60
2018-01-24T01:05:23.877Z,63.20
2018-01-24T01:11:28.022Z,62.90
2018-01-24T01:17:31.885Z,62.80
2018-01-24T01:23:36.177Z,62.70
2018-01-24T01:29:40.350Z,63.50
2018-01-24T01:35:45.298Z,61.80
2018-01-24T01:41:49.582Z,61.80
2018-01-24T01:47:53.414Z,61.00
2018-01-24T01:53:57.325Z,59.90
2018-01-24T02:00:01.240Z,59.10
2018-01-24T02:06:06.561Z,59.20
2018-01-24T02:12:10.762Z,59.20
2018-01-24T02:18:15.499Z,59.50
2018-01-24T02:24:19.736Z,58.10
2018-01-24T02:30:23.710Z,59.10
2018-01-24T02:36:27.823Z,59.00
2018-01-24T02:42:32.213Z,59.00
2018-01-24T02:48:36.123Z,58.80
2018-01-24T02:54:40.069Z,59.10
2018-01-24T03:00:43.974Z,59.40
2018-01-24T03:06:48.409Z,59.50
2018-01-24T03:12:52.425Z,59.00
2018-01-24T03:18:57.258Z,59.50
2018-01-24T03:25:01.740Z,59.50
2018-01-24T03:31:06.965Z,60.00
2018-01-24T03:37:11.387Z,59.00
2018-01-24T03:43:15.738Z,59.40
2018-01-24T03:49:19.837Z,58.90
2018-01-24T03:55:24.693Z,59.50
2018-01-24T04:01:28.905Z,59.40
2018-01-24T04:07:33.020Z,60.80
2018-01-24T04:13:37.574Z,61.10
2018-01-24T04:19:41.492Z,61.60
2018-01-24T04:25:45.471Z,61.60
2018-01-24T04:31:50.745Z,61.20
2018-01-24T04:37:55.033Z,61.10
2018-01-24T04:43:59.074Z,61.40
2018-01-24T04:50:03.220Z,60.60
2018-01-24T04:56:07.117Z,60.70
2018-01-24T05:02:11.338Z,61.30
2018-01-24T05:08:15.576Z,60.90
2018-01-24T05:14:20.328Z,61.00
2018-01-24T05:20:26.879Z,61.00
2018-01-24T05:26:30.996Z,61.20
2018-01-24T05:32:35.262Z,61.60
2018-01-24T05:38:39.351Z,62.70
2018-01-24T05:44:43.491Z,64.30
2018-01-24T05:50:47.639Z,65.50
2018-01-24T05:56:51.626Z,65.80
2018-01-24T06:02:55.577Z,66.10
2018-01-24T06:08:59.776Z,66.00
2018-01-24T06:15:03.914Z,65.10
2018-01-24T06:21:07.909Z,66.30
2018-01-24T06:27:12.164Z,65.10
2018-01-24T06:33:16.342Z,66.30
2018-01-24T06:39:20.518Z,66.60
2018-01-24T06:45:24.570Z,66.80
2018-01-24T06:51:28.754Z,66.30
2018-01-24T06:57:33.715Z,66.00
2018-01-24T07:03:37.499Z,66.00
2018-01-24T07:09:41.347Z,63.70
2018-01-24T07:15:44.690Z,62.50
2018-01-24T07:21:48.473Z,61.70
2018-01-24T07:27:52.020Z,60.60
2018-01-24T07:33:55.230Z,60.90
2018-01-24T07:39:59.045Z,61.10
2018-01-24T07:46:03.855Z,59.70
2018-01-24T07:52:08.374Z,59.70
2018-01-24T07:58:12.048Z,59.80
2018-01-24T08:04:15.649Z,57.80
2018-01-24T08:10:18.938Z,55.60
2018-01-24T08:16:22.679Z,55.80
2018-01-24T08:22:26.545Z,55.70
2018-01-24T08:28:30.033Z,55.60
2018-01-24T08:34:33.630Z,55.60
2018-01-24T08:40:36.904Z,55.90
2018-01-24T08:46:40.403Z,56.90
2018-01-24T08:52:43.920Z,56.80
2018-01-24T08:58:48.033Z,55.90
2018-01-24T09:05:03.082Z,55.80
2018-01-24T09:11:25.400Z,54.60
2018-01-24T09:17:46.543Z,54.60
2018-01-24T09:24:15.907Z,55.30
2018-01-24T09:30:22.771Z,55.30
2018-01-24T09:36:26.185Z,55.80
2018-01-24T09:42:30.145Z,57.20
2018-01-24T09:48:34.466Z,56.70
2018-01-24T09:54:38.461Z,56.30
2018-01-24T10:00:41.769Z,56.20
2018-01-24T10:06:45.003Z,54.50
2018-01-24T10:12:49.261Z,53.70
2018-01-24T10:18:52.622Z,53.70
2018-01-24T10:24:56.338Z,53.60
2018-01-24T10:31:00.405Z,53.80
2018-01-24T10:37:03.723Z,53.70
2018-01-24T10:43:06.909Z,52.70
2018-01-24T10:49:10.416Z,52.10
2018-01-24T10:55:13.674Z,52.50
2018-01-24T11:01:16.929Z,51.60
2018-01-24T11:07:20.177Z,50.90
2018-01-24T11:13:24.798Z,50.50
2018-01-24T11:19:28.296Z,49.20
2018-01-24T11:25:33.211Z,49.10
2018-01-24T11:31:36.449Z,49.10
2018-01-24T11:37:40.105Z,50.60
2018-01-24T11:43:48.142Z,50.10
2018-01-24T11:49:52.351Z,50.70
2018-01-24T11:55:55.606Z,51.70
2018-01-24T12:01:58.894Z,52.20
2018-01-24T12:08:02.540Z,53.10
2018-01-24T12:14:07.601Z,52.80
2018-01-24T12:20:10.984Z,50.50
2018-01-24T12:26:14.406Z,48.80
2018-01-24T12:32:18.887Z,48.30
2018-01-24T12:38:23.130Z,48.90
2018-01-24T12:44:27.391Z,48.90
2018-01-24T12:50:31.086Z,48.50
2018-01-24T12:56:36.175Z,50.30
2018-01-24T13:02:40.833Z,48.80
2018-01-24T13:08:45.428Z,47.40
2018-01-24T13:14:50.979Z,47.40
2018-01-24T13:20:56.822Z,54.10
2018-01-24T13:27:03.994Z,54.20
2018-01-24T13:33:07.822Z,53.00
2018-01-24T13:39:11.969Z,46.30
2018-01-24T13:45:18.797Z,48.50
2018-01-24T13:51:32.052Z,50.30
2018-01-24T13:57:36.076Z,50.20
2018-01-24T14:03:40.363Z,50.10
2018-01-24T14:09:48.039Z,49.80
2018-01-24T14:15:52.548Z,45.50
2018-01-24T14:21:57.071Z,39.50
2018-01-24T14:28:01.978Z,46.50
2018-01-24T14:34:07.274Z,46.40
2018-01-24T14:40:15.648Z,55.10
2018-01-24T14:46:20.800Z,55.00
2018-01-24T14:52:27.343Z,56.60
2018-01-24T14:58:36.493Z,56.50
2018-01-24T15:04:41.735Z,55.80
2018-01-24T15:10:49.705Z,52.20
2018-01-24T15:16:53.898Z,52.90
2018-01-24T15:23:02.660Z,53.20
2018-01-24T15:29:06.826Z,52.50
2018-01-24T15:35:12.276Z,53.90
2018-01-24T15:41:16.431Z,53.90
2018-01-24T15:47:21.385Z,50.20
2018-01-24T15:53:25.589Z,50.10
2018-01-24T15:59:30.058Z,51.50
2018-01-24T16:05:34.179Z,50.60
2018-01-24T16:11:38.156Z,50.70
2018-01-24T16:17:48.030Z,50.80
2018-01-24T16:23:53.066Z,51.30
2018-01-24T16:29:57.038Z,51.00
2018-01-24T16:36:01.138Z,50.20
2018-01-24T16:42:07.230Z,51.30
2018-01-24T16:48:12.648Z,52.30
2018-01-24T16:54:16.600Z,52.20
2018-01-24T17:00:23.454Z,51.80
2018-01-24T17:06:29.981Z,51.60
2018-01-24T17:12:36.709Z,51.80
2018-01-24T17:18:41.297Z,52.40
2018-01-24T17:24:45.823Z,52.70
2018-01-24T17:30:52.829Z,52.00
2018-01-24T17:36:57.775Z,52.10
2018-01-24T17:43:03.293Z,52.10
2018-01-24T17:49:08.120Z,51.90
2018-01-24T17:55:17.521Z,52.70
2018-01-24T18:01:22.500Z,60.10
2018-01-24T18:07:26.459Z,61.80
2018-01-24T18:13:30.323Z,61.00
2018-01-24T18:19:34.378Z,59.00
2018-01-24T18:25:38.248Z,58.30
2018-01-24T18:31:42.275Z,57.80
2018-01-24T18:37:46.880Z,55.50
2018-01-24T18:43:51.825Z,55.60
2018-01-24T18:49:56.659Z,56.20
2018-01-24T18:56:01.251Z,56.20
2018-01-24T19:02:06.319Z,55.80
2018-01-24T19:08:10.382Z,55.70
2018-01-24T19:14:14.226Z,56.40
2018-01-24T19:20:18.117Z,54.80
2018-01-24T19:26:22.429Z,54.30
2018-01-24T19:32:26.754Z,53.00
2018-01-24T19:38:30.980Z,52.20
2018-01-24T19:44:34.943Z,52.30
2018-01-24T19:50:39.159Z,52.80
2018-01-24T19:56:43.313Z,51.90
2018-01-24T20:02:47.202Z,52.10
2018-01-24T20:08:52.093Z,52.40
2018-01-24T20:14:55.973Z,52.30
2018-01-24T20:21:00.071Z,51.80
2018-01-24T20:27:04.281Z,52.50
2018-01-24T20:33:08.290Z,53.70
2018-01-24T20:39:12.116Z,54.70
2018-01-24T20:45:16.604Z,56.20
2018-01-24T20:51:21.336Z,54.70
2018-01-24T20:57:26.086Z,56.10
2018-01-24T21:03:30.088Z,56.00
2018-01-24T21:09:35.090Z,54.80
2018-01-24T21:15:39.694Z,53.80
2018-01-24T21:21:43.527Z,53.70
2018-01-24T21:27:47.698Z,53.70
2018-01-24T21:33:51.851Z,52.60
2018-01-24T21:39:56.168Z,51.80
2018-01-24T21:46:00.534Z,52.20
2018-01-24T21:52:04.410Z,52.10
2018-01-24T21:58:08.382Z,51.20
2018-01-24T22:04:12.243Z,51.60
2018-01-24T22:10:16.272Z,51.70
2018-01-24T22:16:20.691Z,51.40
2018-01-24T22:22:24.566Z,51.30
2018-01-24T22:28:28.391Z,51.50
2018-01-24T22:34:32.313Z,52.10
2018-01-24T22:40:36.514Z,52.20
2018-01-24T22:46:40.442Z,51.70
2018-01-24T22:52:44.497Z,52.80
2018-01-24T22:58:48.639Z,51.60
2018-01-24T23:04:52.767Z,51.40
2018-01-24T23:10:57.503Z,51.50
2018-01-24T23:17:01.434Z,51.40
2018-01-24T23:23:05.566Z,51.50
2018-01-24T23:29:10.290Z,52.40
2018-01-24T23:35:14.398Z,52.30
2018-01-24T23:41:18.569Z,51.60
2018-01-24T23:47:22.627Z,51.40
2018-01-24T23:53:27.214Z,51.10
2018-01-24T23:59:31.938Z,51.10
